Sst Orleans — CFN5087 — position and weather

sailwx.info

Track history (hours):
 
Tides and Currents Weather Stations Pressure Air Temp Water Temp Dewpoint Dewpoint Depression Visibility Wind Speed Wind Dir Waves Ship Positions

Sst Orleans

Last reported at 2016-May-25 04:34 UTC. Time now 2016-May-25 05:21 UTC.
Position N 49°17' W 123°04'.

Length 29 m; draft 5.1 m.

Type: . MMSI: 316012721.

Date/timePositionNaut miles runAvg speedWind from/ knotsBaromVisibWave heightAir tempDewpointWater temp
2016-May-25 04:34N 49°17' W 123°04'0 0.0
2016-May-25 03:33N 49°17' W 123°04'0 0.0
2016-May-25 02:33N 49°17' W 123°04'0 0.0
2016-May-25 01:34N 49°17' W 123°04'0 0.0
2016-May-25 00:33N 49°17' W 123°04'0 0.0
2016-May-24 23:34N 49°17' W 123°04'0 0.0
2016-May-24 22:34N 49°17' W 123°04'2 2.4
2016-May-24 21:34N 49°18' W 123°07'2 2.4
2016-May-24 20:34N 49°17' W 123°04'0 0.0
2016-May-24 19:34N 49°17' W 123°04'0 0.0
2016-May-24 18:34N 49°17' W 123°04'0 0.0
2016-May-24 17:34N 49°17' W 123°04'0 0.0
2016-May-24 16:34N 49°17' W 123°04'0 0.0
2016-May-24 15:34N 49°17' W 123°04'0 0.0
2016-May-24 14:34N 49°17' W 123°04'1 0.5
2016-May-24 13:34N 49°17' W 123°04'1 1.2
2016-May-24 12:34N 49°18' W 123°06'2 1.6
2016-May-24 11:34N 49°17' W 123°04'0 0.0
2016-May-24 10:34N 49°17' W 123°04'0 0.0
2016-May-24 09:34N 49°17' W 123°04'0 0.0
2016-May-24 08:34N 49°17' W 123°04'0 0.0
2016-May-24 07:34N 49°17' W 123°04'0 0.0
2016-May-24 06:33N 49°17' W 123°04'0 0.0
2016-May-24 05:33N 49°17' W 123°04'0 0.0
2016-May-24 04:34N 49°17' W 123°04'0 0.0
2016-May-24 03:34N 49°17' W 123°04'0 0.0
2016-May-24 02:34N 49°17' W 123°04'0 0.0
2016-May-24 01:33N 49°17' W 123°04'0 0.3
2016-May-24 00:34N 49°17' W 123°04'1 1.1
2016-May-23 23:34N 49°17' W 123°06'1 1.4
2016-May-23 22:34N 49°17' W 123°04'0 0.0
2016-May-23 21:34N 49°17' W 123°04'0 0.0
2016-May-23 20:33N 49°17' W 123°04'0 0.0
2016-May-23 19:34N 49°17' W 123°04'0 0.0
2016-May-23 18:34N 49°17' W 123°04'0 0.0
2016-May-23 17:34N 49°17' W 123°04'0 0.0
2016-May-23 16:34N 49°17' W 123°04'0 0.0
2016-May-23 15:34N 49°17' W 123°04'0 0.0
2016-May-23 14:34N 49°17' W 123°04'1 0.8
2016-May-23 13:34N 49°18' W 123°03'0 0.4
2016-May-23 12:33N 49°18' W 123°03'0 0.4
2016-May-23 11:34N 49°17' W 123°04'0 0.0
2016-May-23 10:34N 49°17' W 123°04'0 0.0
2016-May-23 09:34N 49°17' W 123°04'0 0.0
2016-May-23 08:33N 49°17' W 123°04'0 0.0
2016-May-23 07:34N 49°17' W 123°04'0 0.0
2016-May-23 06:33N 49°17' W 123°04'0 0.0
2016-May-23 05:34N 49°17' W 123°04'0 0.0
2016-May-23 04:34N 49°17' W 123°04'0 0.0
2016-May-23 03:34N 49°17' W 123°04'0 0.0
2016-May-23 02:34N 49°17' W 123°04'0 0.0
2016-May-23 01:33N 49°17' W 123°04'0 0.0
2016-May-23 00:34N 49°17' W 123°04'1 0.7
2016-May-22 23:34N 49°18' W 123°05'0 0.2
2016-May-22 22:34N 49°17' W 123°05'1 0.5
2016-May-22 21:34N 49°18' W 123°04'1 1.3
2016-May-22 20:34N 49°17' W 123°06'2 1.5
2016-May-22 19:34N 49°17' W 123°04'0 0.0
2016-May-22 18:33N 49°17' W 123°04'0 0.0
2016-May-22 17:34N 49°17' W 123°04'0 0.0
2016-May-22 16:34N 49°17' W 123°04'0 0.0
2016-May-22 15:34N 49°17' W 123°04'0 0.0
2016-May-22 14:34N 49°17' W 123°04'0 0.0
2016-May-22 13:34N 49°17' W 123°04'0 0.0
2016-May-22 12:34N 49°17' W 123°04'0 0.0
2016-May-22 11:33N 49°17' W 123°04'0 0.0
2016-May-22 10:33N 49°17' W 123°04'2 2.4
2016-May-22 09:33N 49°18' W 123°07'2 2.4
2016-May-22 08:34N 49°18' W 123°03'0 0.3
2016-May-22 07:34N 49°18' W 123°03'0 0.5
2016-May-22 06:34N 49°17' W 123°04'0 0.0
2016-May-22 05:34N 49°17' W 123°04'5 5.3
2016-May-22 04:34N 49°19' W 123°11'7 7.0
2016-May-22 03:33N 49°24' W 123°18'9 8.7
2016-May-22 02:33N 49°33' W 123°16'0 0.1
2016-May-21 23:33N 49°33' W 123°16'9 9.6
2016-May-21 22:33N 49°24' W 123°18'8 8.1
2016-May-21 21:34N 49°19' W 123°08'3 3.1
2016-May-21 20:34N 49°17' W 123°04'0 0.0
2016-May-21 19:34N 49°17' W 123°04'1 1.4
2016-May-21 18:34N 49°17' W 123°06'1 1.1
2016-May-21 17:34N 49°18' W 123°07'2 2.2
2016-May-21 16:34N 49°17' W 123°04'0 0.0
2016-May-21 15:33N 49°17' W 123°04'0 0.0
2016-May-21 14:34N 49°17' W 123°04'0 0.0
2016-May-21 13:33N 49°17' W 123°04'3 2.9
2016-May-21 12:34N 49°19' W 123°08'3 2.7
2016-May-21 11:34N 49°18' W 123°04'0 0.1
2016-May-21 10:34N 49°17' W 123°04'0 0.0
2016-May-21 09:34N 49°17' W 123°04'1 1.1
2016-May-21 08:34N 49°18' W 123°05'10 9.7
2016-May-21 07:33N 49°23' W 123°18'9 8.4
2016-May-21 06:33N 49°28' W 123°28'1 0.4
2016-May-21 04:16N 49°29' W 123°28'5 6.6
2016-May-21 03:33N 49°26' W 123°23'7 7.5
2016-May-21 02:34N 49°20' W 123°16'8 8.5
2016-May-21 01:34N 49°17' W 123°04'0 0.0
2016-May-21 00:34N 49°17' W 123°04'0 0.0
2016-May-20 23:34N 49°17' W 123°04'0 0.0
2016-May-20 22:34N 49°17' W 123°04'0 0.0
2016-May-20 21:34N 49°17' W 123°04'0 0.0
2016-May-20 20:34N 49°17' W 123°04'0 0.0
2016-May-20 19:34N 49°17' W 123°04'0 0.0
2016-May-20 18:34N 49°17' W 123°04'0 0.0
2016-May-20 17:34N 49°17' W 123°04'0 0.0
2016-May-20 16:34N 49°17' W 123°04'0 0.0
2016-May-20 15:34N 49°17' W 123°04'0 0.0
2016-May-20 14:34N 49°17' W 123°04'0 0.0
2016-May-20 13:34N 49°17' W 123°04'0 0.0
2016-May-20 12:34N 49°17' W 123°04'0 0.0
2016-May-20 11:34N 49°17' W 123°04'1 1.3
2016-May-20 10:34N 49°19' W 123°05'1 1.3
2016-May-20 09:33N 49°17' W 123°04'0 0.0
2016-May-20 08:34N 49°17' W 123°04'0 0.0
2016-May-20 07:33N 49°17' W 123°04'0 0.0
2016-May-20 06:34N 49°17' W 123°04'0 0.0
2016-May-20 05:34N 49°17' W 123°04'0 0.0
2016-May-20 04:34N 49°17' W 123°04'0 0.0
2016-May-20 03:34N 49°17' W 123°04'0 0.0
2016-May-20 02:34N 49°17' W 123°04'0 0.0
2016-May-20 01:33N 49°17' W 123°04'2 2.4
2016-May-20 00:34N 49°19' W 123°07'2 2.4
2016-May-19 23:34N 49°17' W 123°04'0 0.0
2016-May-19 22:34N 49°17' W 123°04'0 0.0
2016-May-19 21:33N 49°17' W 123°04'2 1.6
2016-May-19 20:34N 49°18' W 123°06'2 1.6
2016-May-19 19:34N 49°17' W 123°04'0 0.0
2016-May-19 18:33N 49°17' W 123°04'0 0.0
2016-May-19 17:34N 49°17' W 123°04'0 0.0
2016-May-19 16:34N 49°17' W 123°04'0 0.0
2016-May-19 15:33N 49°17' W 123°04'0 0.0
2016-May-19 14:33N 49°17' W 123°04'0 0.0
2016-May-19 13:34N 49°17' W 123°04'0 0.0
2016-May-19 12:33N 49°17' W 123°04'0 0.0
2016-May-19 11:33N 49°17' W 123°04'0 0.0
2016-May-19 10:33N 49°17' W 123°04'0 0.0
2016-May-19 09:34N 49°17' W 123°04'0 0.0
2016-May-19 08:34N 49°17' W 123°04'0 0.0
2016-May-19 07:33N 49°17' W 123°04'0 0.0
2016-May-19 06:34N 49°17' W 123°04'0 0.0
2016-May-19 05:34N 49°17' W 123°04'0 0.2
2016-May-19 04:34N 49°18' W 123°04'0 0.2
2016-May-19 03:34N 49°18' W 123°04'0 0.4
2016-May-19 02:34N 49°17' W 123°04'0 0.0
2016-May-19 01:33N 49°17' W 123°04'0 0.0
2016-May-19 00:33N 49°17' W 123°04'0 0.0
2016-May-18 23:34N 49°17' W 123°04'0 0.0
2016-May-18 22:34N 49°17' W 123°04'0 0.0
2016-May-18 21:34N 49°17' W 123°04'0 0.0
2016-May-18 20:34N 49°17' W 123°04'1 0.9
2016-May-18 19:34N 49°18' W 123°05'2 1.7
2016-May-18 18:33N 49°18' W 123°02'2 1.9
2016-May-18 17:34N 49°18' W 123°05'1 0.9
2016-May-18 16:34N 49°17' W 123°04'0 0.0
2016-May-18 15:34N 49°17' W 123°04'0 0.0
2016-May-18 14:34N 49°17' W 123°04'0 0.0
2016-May-18 13:33N 49°17' W 123°04'0 0.0
2016-May-18 12:34N 49°17' W 123°04'0 0.0
2016-May-18 11:34N 49°17' W 123°04'0 0.0
2016-May-18 10:34N 49°17' W 123°04'0 0.0
2016-May-18 09:33N 49°17' W 123°04'0 0.0
2016-May-18 08:34N 49°17' W 123°04'0 0.0
2016-May-18 07:33N 49°17' W 123°04'8 8.0
2016-May-18 06:34N 49°19' W 123°16'7 7.0
2016-May-18 05:34N 49°25' W 123°21'6 6.0
2016-May-18 04:33N 49°29' W 123°28'0 0.2
2016-May-18 03:33N 49°29' W 123°28'6 6.3
2016-May-18 02:33N 49°26' W 123°20'6 6.3
2016-May-18 01:34N 49°20' W 123°16'8 7.9
2016-May-18 00:34N 49°18' W 123°05'1 0.7
2016-May-17 23:33N 49°17' W 123°04'2 2.4
2016-May-17 22:33N 49°19' W 123°07'2 2.1
2016-May-17 21:33N 49°18' W 123°04'1 1.0
2016-May-17 20:33N 49°18' W 123°03'1 0.9
2016-May-17 19:33N 49°17' W 123°04'0 0.0
2016-May-17 18:33N 49°17' W 123°04'0 0.0
2016-May-17 17:33N 49°17' W 123°04'1 1.1
2016-May-17 16:34N 49°18' W 123°02'1 1.1
2016-May-17 15:34N 49°17' W 123°04'0 0.0
2016-May-17 14:34N 49°17' W 123°04'0 0.0
2016-May-17 13:33N 49°17' W 123°04'0 0.0
2016-May-17 12:34N 49°17' W 123°04'0 0.0
2016-May-17 11:34N 49°17' W 123°04'0 0.3
2016-May-17 10:33N 49°17' W 123°04'1 0.9
2016-May-17 09:34N 49°18' W 123°05'1 1.2
2016-May-17 08:33N 49°17' W 123°04'1 0.5
2016-May-17 07:34N 49°18' W 123°03'1 1.0
2016-May-17 06:33N 49°17' W 123°04'0 0.4
2016-May-17 05:33N 49°17' W 123°04'1 0.7
2016-May-17 04:33N 49°18' W 123°04'0 0.4
2016-May-17 03:33N 49°18' W 123°04'0 0.4
2016-May-17 02:34N 49°17' W 123°04'0 0.0
2016-May-17 01:33N 49°17' W 123°04'0 0.0
2016-May-17 00:34N 49°17' W 123°04'0 0.0
2016-May-16 23:33N 49°17' W 123°04'0 0.0
2016-May-16 22:34N 49°17' W 123°04'0 0.0
2016-May-16 21:34N 49°17' W 123°04'0 0.0
2016-May-16 20:33N 49°17' W 123°04'0 0.0
2016-May-16 19:33N 49°17' W 123°04'0 0.0
2016-May-16 18:34N 49°17' W 123°04'1 1.3
2016-May-16 17:33N 49°18' W 123°02'2 2.3
2016-May-16 16:34N 49°18' W 122°58'4 3.6
2016-May-16 15:34N 49°17' W 123°04'0 0.0
2016-May-16 14:33N 49°17' W 123°04'2 1.5
2016-May-16 13:33N 49°18' W 123°06'2 1.5
2016-May-16 12:33N 49°17' W 123°04'2 2.5
2016-May-16 11:34N 49°19' W 123°07'1 0.6
2016-May-16 10:34N 49°18' W 123°06'5 4.9
2016-May-16 09:33N 49°18' W 122°59'4 3.7
2016-May-16 08:34N 49°18' W 122°53'2 1.9
2016-May-16 07:33N 49°18' W 122°56'5 5.0
2016-May-16 06:34N 49°17' W 123°04'0 0.0
2016-May-16 05:33N 49°17' W 123°04'0 0.0
2016-May-16 04:33N 49°17' W 123°04'0 0.0
2016-May-16 03:33N 49°17' W 123°04'0 0.0
2016-May-16 02:34N 49°17' W 123°04'0 0.0
2016-May-16 01:33N 49°17' W 123°04'0 0.0
2016-May-16 00:34N 49°17' W 123°04'0 0.0
2016-May-15 23:34N 49°17' W 123°04'0 0.0
2016-May-15 22:34N 49°17' W 123°04'0 0.0
2016-May-15 21:34N 49°17' W 123°04'0 0.0
2016-May-15 20:34N 49°17' W 123°04'0 0.0
2016-May-15 19:34N 49°17' W 123°04'0 0.0
2016-May-15 18:34N 49°17' W 123°04'0 0.2
2016-May-15 17:33N 49°18' W 123°04'10 9.6
2016-May-15 16:33N 49°21' W 123°18'10 9.9
2016-May-15 15:34N 49°31' W 123°17'10 9.8
2016-May-15 14:33N 49°40' W 123°12'0 0.3
2016-May-15 13:26N 49°40' W 123°11'5 5.9
2016-May-15 12:33N 49°36' W 123°15'1312.6
2016-May-15 11:34N 49°23' W 123°18'1110.9
2016-May-15 10:33N 49°17' W 123°04'0 0.0
2016-May-15 09:33N 49°17' W 123°04'1 1.1
2016-May-15 08:33N 49°18' W 123°02'1 1.1
2016-May-15 07:34N 49°17' W 123°04'0 0.0
2016-May-15 06:33N 49°17' W 123°04'0 0.0
2016-May-15 05:33N 49°17' W 123°04'  
Track history (hours):
 
Tides and Currents Weather Stations Pressure Air Temp Water Temp Dewpoint Dewpoint Depression Visibility Wind Speed Wind Dir Waves Ship Positions

Sst Orleans

Last reported at 2016-May-25 04:34 UTC. Time now 2016-May-25 05:21 UTC.
Position N 49°17' W 123°04'.

Length 29 m; draft 5.1 m.

Type: . MMSI: 316012721.

Date/timePositionNaut miles runAvg speedWind from/ knotsBaromVisibWave heightAir tempDewpointWater temp
2016-May-25 04:34N 49°17' W 123°04'0 0.0
2016-May-25 03:33N 49°17' W 123°04'0 0.0
2016-May-25 02:33N 49°17' W 123°04'0 0.0
2016-May-25 01:34N 49°17' W 123°04'0 0.0
2016-May-25 00:33N 49°17' W 123°04'0 0.0
2016-May-24 23:34N 49°17' W 123°04'0 0.0
2016-May-24 22:34N 49°17' W 123°04'2 2.4
2016-May-24 21:34N 49°18' W 123°07'2 2.4
2016-May-24 20:34N 49°17' W 123°04'0 0.0
2016-May-24 19:34N 49°17' W 123°04'0 0.0
2016-May-24 18:34N 49°17' W 123°04'0 0.0
2016-May-24 17:34N 49°17' W 123°04'0 0.0
2016-May-24 16:34N 49°17' W 123°04'0 0.0
2016-May-24 15:34N 49°17' W 123°04'0 0.0
2016-May-24 14:34N 49°17' W 123°04'1 0.5
2016-May-24 13:34N 49°17' W 123°04'1 1.2
2016-May-24 12:34N 49°18' W 123°06'2 1.6
2016-May-24 11:34N 49°17' W 123°04'0 0.0
2016-May-24 10:34N 49°17' W 123°04'0 0.0
2016-May-24 09:34N 49°17' W 123°04'0 0.0
2016-May-24 08:34N 49°17' W 123°04'0 0.0
2016-May-24 07:34N 49°17' W 123°04'0 0.0
2016-May-24 06:33N 49°17' W 123°04'0 0.0
2016-May-24 05:33N 49°17' W 123°04'0 0.0
2016-May-24 04:34N 49°17' W 123°04'0 0.0
2016-May-24 03:34N 49°17' W 123°04'0 0.0
2016-May-24 02:34N 49°17' W 123°04'0 0.0
2016-May-24 01:33N 49°17' W 123°04'0 0.3
2016-May-24 00:34N 49°17' W 123°04'1 1.1
2016-May-23 23:34N 49°17' W 123°06'1 1.4
2016-May-23 22:34N 49°17' W 123°04'0 0.0
2016-May-23 21:34N 49°17' W 123°04'0 0.0
2016-May-23 20:33N 49°17' W 123°04'0 0.0
2016-May-23 19:34N 49°17' W 123°04'0 0.0
2016-May-23 18:34N 49°17' W 123°04'0 0.0
2016-May-23 17:34N 49°17' W 123°04'0 0.0
2016-May-23 16:34N 49°17' W 123°04'0 0.0
2016-May-23 15:34N 49°17' W 123°04'0 0.0
2016-May-23 14:34N 49°17' W 123°04'1 0.8
2016-May-23 13:34N 49°18' W 123°03'0 0.4
2016-May-23 12:33N 49°18' W 123°03'0 0.4
2016-May-23 11:34N 49°17' W 123°04'0 0.0
2016-May-23 10:34N 49°17' W 123°04'0 0.0
2016-May-23 09:34N 49°17' W 123°04'0 0.0
2016-May-23 08:33N 49°17' W 123°04'0 0.0
2016-May-23 07:34N 49°17' W 123°04'0 0.0
2016-May-23 06:33N 49°17' W 123°04'0 0.0
2016-May-23 05:34N 49°17' W 123°04'0 0.0
2016-May-23 04:34N 49°17' W 123°04'0 0.0
2016-May-23 03:34N 49°17' W 123°04'0 0.0
2016-May-23 02:34N 49°17' W 123°04'0 0.0
2016-May-23 01:33N 49°17' W 123°04'0 0.0
2016-May-23 00:34N 49°17' W 123°04'1 0.7
2016-May-22 23:34N 49°18' W 123°05'0 0.2
2016-May-22 22:34N 49°17' W 123°05'1 0.5
2016-May-22 21:34N 49°18' W 123°04'1 1.3
2016-May-22 20:34N 49°17' W 123°06'2 1.5
2016-May-22 19:34N 49°17' W 123°04'0 0.0
2016-May-22 18:33N 49°17' W 123°04'0 0.0
2016-May-22 17:34N 49°17' W 123°04'0 0.0
2016-May-22 16:34N 49°17' W 123°04'0 0.0
2016-May-22 15:34N 49°17' W 123°04'0 0.0
2016-May-22 14:34N 49°17' W 123°04'0 0.0
2016-May-22 13:34N 49°17' W 123°04'0 0.0
2016-May-22 12:34N 49°17' W 123°04'0 0.0
2016-May-22 11:33N 49°17' W 123°04'0 0.0
2016-May-22 10:33N 49°17' W 123°04'2 2.4
2016-May-22 09:33N 49°18' W 123°07'2 2.4
2016-May-22 08:34N 49°18' W 123°03'0 0.3
2016-May-22 07:34N 49°18' W 123°03'0 0.5
2016-May-22 06:34N 49°17' W 123°04'0 0.0
2016-May-22 05:34N 49°17' W 123°04'5 5.3
2016-May-22 04:34N 49°19' W 123°11'7 7.0
2016-May-22 03:33N 49°24' W 123°18'9 8.7
2016-May-22 02:33N 49°33' W 123°16'0 0.1
2016-May-21 23:33N 49°33' W 123°16'9 9.6
2016-May-21 22:33N 49°24' W 123°18'8 8.1
2016-May-21 21:34N 49°19' W 123°08'3 3.1
2016-May-21 20:34N 49°17' W 123°04'0 0.0
2016-May-21 19:34N 49°17' W 123°04'1 1.4
2016-May-21 18:34N 49°17' W 123°06'1 1.1
2016-May-21 17:34N 49°18' W 123°07'2 2.2
2016-May-21 16:34N 49°17' W 123°04'0 0.0
2016-May-21 15:33N 49°17' W 123°04'0 0.0
2016-May-21 14:34N 49°17' W 123°04'0 0.0
2016-May-21 13:33N 49°17' W 123°04'3 2.9
2016-May-21 12:34N 49°19' W 123°08'3 2.7
2016-May-21 11:34N 49°18' W 123°04'0 0.1
2016-May-21 10:34N 49°17' W 123°04'0 0.0
2016-May-21 09:34N 49°17' W 123°04'1 1.1
2016-May-21 08:34N 49°18' W 123°05'10 9.7
2016-May-21 07:33N 49°23' W 123°18'9 8.4
2016-May-21 06:33N 49°28' W 123°28'1 0.4
2016-May-21 04:16N 49°29' W 123°28'5 6.6
2016-May-21 03:33N 49°26' W 123°23'7 7.5
2016-May-21 02:34N 49°20' W 123°16'8 8.5
2016-May-21 01:34N 49°17' W 123°04'0 0.0
2016-May-21 00:34N 49°17' W 123°04'0 0.0
2016-May-20 23:34N 49°17' W 123°04'0 0.0
2016-May-20 22:34N 49°17' W 123°04'0 0.0
2016-May-20 21:34N 49°17' W 123°04'0 0.0
2016-May-20 20:34N 49°17' W 123°04'0 0.0
2016-May-20 19:34N 49°17' W 123°04'0 0.0
2016-May-20 18:34N 49°17' W 123°04'0 0.0
2016-May-20 17:34N 49°17' W 123°04'0 0.0
2016-May-20 16:34N 49°17' W 123°04'0 0.0
2016-May-20 15:34N 49°17' W 123°04'0 0.0
2016-May-20 14:34N 49°17' W 123°04'0 0.0
2016-May-20 13:34N 49°17' W 123°04'0 0.0
2016-May-20 12:34N 49°17' W 123°04'0 0.0
2016-May-20 11:34N 49°17' W 123°04'1 1.3
2016-May-20 10:34N 49°19' W 123°05'1 1.3
2016-May-20 09:33N 49°17' W 123°04'0 0.0
2016-May-20 08:34N 49°17' W 123°04'0 0.0
2016-May-20 07:33N 49°17' W 123°04'0 0.0
2016-May-20 06:34N 49°17' W 123°04'0 0.0
2016-May-20 05:34N 49°17' W 123°04'0 0.0
2016-May-20 04:34N 49°17' W 123°04'0 0.0
2016-May-20 03:34N 49°17' W 123°04'0 0.0
2016-May-20 02:34N 49°17' W 123°04'0 0.0
2016-May-20 01:33N 49°17' W 123°04'2 2.4
2016-May-20 00:34N 49°19' W 123°07'2 2.4
2016-May-19 23:34N 49°17' W 123°04'0 0.0
2016-May-19 22:34N 49°17' W 123°04'0 0.0
2016-May-19 21:33N 49°17' W 123°04'2 1.6
2016-May-19 20:34N 49°18' W 123°06'2 1.6
2016-May-19 19:34N 49°17' W 123°04'0 0.0
2016-May-19 18:33N 49°17' W 123°04'0 0.0
2016-May-19 17:34N 49°17' W 123°04'0 0.0
2016-May-19 16:34N 49°17' W 123°04'0 0.0
2016-May-19 15:33N 49°17' W 123°04'0 0.0
2016-May-19 14:33N 49°17' W 123°04'0 0.0
2016-May-19 13:34N 49°17' W 123°04'0 0.0
2016-May-19 12:33N 49°17' W 123°04'0 0.0
2016-May-19 11:33N 49°17' W 123°04'0 0.0
2016-May-19 10:33N 49°17' W 123°04'0 0.0
2016-May-19 09:34N 49°17' W 123°04'0 0.0
2016-May-19 08:34N 49°17' W 123°04'0 0.0
2016-May-19 07:33N 49°17' W 123°04'0 0.0
2016-May-19 06:34N 49°17' W 123°04'0 0.0
2016-May-19 05:34N 49°17' W 123°04'0 0.2
2016-May-19 04:34N 49°18' W 123°04'0 0.2
2016-May-19 03:34N 49°18' W 123°04'0 0.4
2016-May-19 02:34N 49°17' W 123°04'0 0.0
2016-May-19 01:33N 49°17' W 123°04'0 0.0
2016-May-19 00:33N 49°17' W 123°04'0 0.0
2016-May-18 23:34N 49°17' W 123°04'0 0.0
2016-May-18 22:34N 49°17' W 123°04'0 0.0
2016-May-18 21:34N 49°17' W 123°04'0 0.0
2016-May-18 20:34N 49°17' W 123°04'1 0.9
2016-May-18 19:34N 49°18' W 123°05'2 1.7
2016-May-18 18:33N 49°18' W 123°02'2 1.9
2016-May-18 17:34N 49°18' W 123°05'1 0.9
2016-May-18 16:34N 49°17' W 123°04'0 0.0
2016-May-18 15:34N 49°17' W 123°04'0 0.0
2016-May-18 14:34N 49°17' W 123°04'0 0.0
2016-May-18 13:33N 49°17' W 123°04'0 0.0
2016-May-18 12:34N 49°17' W 123°04'0 0.0
2016-May-18 11:34N 49°17' W 123°04'0 0.0
2016-May-18 10:34N 49°17' W 123°04'0 0.0
2016-May-18 09:33N 49°17' W 123°04'0 0.0
2016-May-18 08:34N 49°17' W 123°04'0 0.0
2016-May-18 07:33N 49°17' W 123°04'8 8.0
2016-May-18 06:34N 49°19' W 123°16'7 7.0
2016-May-18 05:34N 49°25' W 123°21'6 6.0
2016-May-18 04:33N 49°29' W 123°28'0 0.2
2016-May-18 03:33N 49°29' W 123°28'6 6.3
2016-May-18 02:33N 49°26' W 123°20'6 6.3
2016-May-18 01:34N 49°20' W 123°16'8 7.9
2016-May-18 00:34N 49°18' W 123°05'1 0.7
2016-May-17 23:33N 49°17' W 123°04'2 2.4
2016-May-17 22:33N 49°19' W 123°07'2 2.1
2016-May-17 21:33N 49°18' W 123°04'1 1.0
2016-May-17 20:33N 49°18' W 123°03'1 0.9
2016-May-17 19:33N 49°17' W 123°04'0 0.0
2016-May-17 18:33N 49°17' W 123°04'0 0.0
2016-May-17 17:33N 49°17' W 123°04'1 1.1
2016-May-17 16:34N 49°18' W 123°02'1 1.1
2016-May-17 15:34N 49°17' W 123°04'0 0.0
2016-May-17 14:34N 49°17' W 123°04'0 0.0
2016-May-17 13:33N 49°17' W 123°04'0 0.0
2016-May-17 12:34N 49°17' W 123°04'0 0.0
2016-May-17 11:34N 49°17' W 123°04'0 0.3
2016-May-17 10:33N 49°17' W 123°04'1 0.9
2016-May-17 09:34N 49°18' W 123°05'1 1.2
2016-May-17 08:33N 49°17' W 123°04'1 0.5
2016-May-17 07:34N 49°18' W 123°03'1 1.0
2016-May-17 06:33N 49°17' W 123°04'0 0.4
2016-May-17 05:33N 49°17' W 123°04'1 0.7
2016-May-17 04:33N 49°18' W 123°04'0 0.4
2016-May-17 03:33N 49°18' W 123°04'0 0.4
2016-May-17 02:34N 49°17' W 123°04'0 0.0
2016-May-17 01:33N 49°17' W 123°04'0 0.0
2016-May-17 00:34N 49°17' W 123°04'0 0.0
2016-May-16 23:33N 49°17' W 123°04'0 0.0
2016-May-16 22:34N 49°17' W 123°04'0 0.0
2016-May-16 21:34N 49°17' W 123°04'0 0.0
2016-May-16 20:33N 49°17' W 123°04'0 0.0
2016-May-16 19:33N 49°17' W 123°04'0 0.0
2016-May-16 18:34N 49°17' W 123°04'1 1.3
2016-May-16 17:33N 49°18' W 123°02'2 2.3
2016-May-16 16:34N 49°18' W 122°58'4 3.6
2016-May-16 15:34N 49°17' W 123°04'0 0.0
2016-May-16 14:33N 49°17' W 123°04'2 1.5
2016-May-16 13:33N 49°18' W 123°06'2 1.5
2016-May-16 12:33N 49°17' W 123°04'2 2.5
2016-May-16 11:34N 49°19' W 123°07'1 0.6
2016-May-16 10:34N 49°18' W 123°06'5 4.9
2016-May-16 09:33N 49°18' W 122°59'4 3.7
2016-May-16 08:34N 49°18' W 122°53'2 1.9
2016-May-16 07:33N 49°18' W 122°56'5 5.0
2016-May-16 06:34N 49°17' W 123°04'0 0.0
2016-May-16 05:33N 49°17' W 123°04'0 0.0
2016-May-16 04:33N 49°17' W 123°04'0 0.0
2016-May-16 03:33N 49°17' W 123°04'0 0.0
2016-May-16 02:34N 49°17' W 123°04'0 0.0
2016-May-16 01:33N 49°17' W 123°04'0 0.0
2016-May-16 00:34N 49°17' W 123°04'0 0.0
2016-May-15 23:34N 49°17' W 123°04'0 0.0
2016-May-15 22:34N 49°17' W 123°04'0 0.0
2016-May-15 21:34N 49°17' W 123°04'0 0.0
2016-May-15 20:34N 49°17' W 123°04'0 0.0
2016-May-15 19:34N 49°17' W 123°04'0 0.0
2016-May-15 18:34N 49°17' W 123°04'0 0.2
2016-May-15 17:33N 49°18' W 123°04'10 9.6
2016-May-15 16:33N 49°21' W 123°18'10 9.9
2016-May-15 15:34N 49°31' W 123°17'10 9.8
2016-May-15 14:33N 49°40' W 123°12'0 0.3
2016-May-15 13:26N 49°40' W 123°11'5 5.9
2016-May-15 12:33N 49°36' W 123°15'1312.6
2016-May-15 11:34N 49°23' W 123°18'1110.9
2016-May-15 10:33N 49°17' W 123°04'0 0.0
2016-May-15 09:33N 49°17' W 123°04'1 1.1
2016-May-15 08:33N 49°18' W 123°02'1 1.1
2016-May-15 07:34N 49°17' W 123°04'0 0.0
2016-May-15 06:33N 49°17' W 123°04'0 0.0
2016-May-15 05:33N 49°17' W 123°04'  

Dump ship's entire track history